sensor_id;sensor_type;location;lat;lon;timestamp;P1;durP1;ratioP1;P2;durP2;ratioP2
18818;SDS011;9537;45.594;9.294;2022-12-29T00:00:26;60.07;;;34.47;;
18818;SDS011;9537;45.594;9.294;2022-12-29T00:01:28;60.47;;;34.37;;
18818;SDS011;9537;45.594;9.294;2022-12-29T00:02:30;60.30;;;33.27;;
18818;SDS011;9537;45.594;9.294;2022-12-29T00:03:31;59.07;;;34.07;;
18818;SDS011;9537;45.594;9.294;2022-12-29T00:04:33;60.97;;;34.53;;
18818;SDS011;9537;45.594;9.294;2022-12-29T00:05:34;64.37;;;34.67;;
18818;SDS011;9537;45.594;9.294;2022-12-29T00:06:38;61.70;;;34.60;;
18818;SDS011;9537;45.594;9.294;2022-12-29T00:07:39;64.53;;;36.00;;
18818;SDS011;9537;45.594;9.294;2022-12-29T00:08:41;63.50;;;34.90;;
18818;SDS011;9537;45.594;9.294;2022-12-29T00:09:42;60.40;;;34.37;;
18818;SDS011;9537;45.594;9.294;2022-12-29T00:10:44;59.60;;;34.23;;
18818;SDS011;9537;45.594;9.294;2022-12-29T00:11:45;61.30;;;34.03;;
18818;SDS011;9537;45.594;9.294;2022-12-29T00:12:47;64.07;;;35.47;;
18818;SDS011;9537;45.594;9.294;2022-12-29T00:14:07;54.33;;;32.40;;
18818;SDS011;9537;45.594;9.294;2022-12-29T00:15:27;60.63;;;33.17;;
18818;SDS011;9537;45.594;9.294;2022-12-29T00:16:37;62.13;;;34.03;;
18818;SDS011;9537;45.594;9.294;2022-12-29T00:17:41;62.37;;;33.63;;
18818;SDS011;9537;45.594;9.294;2022-12-29T00:18:42;60.70;;;33.37;;
18818;SDS011;9537;45.594;9.294;2022-12-29T00:19:44;63.50;;;32.90;;
18818;SDS011;9537;45.594;9.294;2022-12-29T00:21:04;66.00;;;33.93;;
18818;SDS011;9537;45.594;9.294;2022-12-29T00:22:24;63.20;;;33.53;;
18818;SDS011;9537;45.594;9.294;2022-12-29T00:23:44;59.77;;;32.43;;
18818;SDS011;9537;45.594;9.294;2022-12-29T00:25:03;63.90;;;34.63;;
18818;SDS011;9537;45.594;9.294;2022-12-29T00:26:24;68.20;;;35.40;;
18818;SDS011;9537;45.594;9.294;2022-12-29T00:27:58;63.03;;;33.77;;
18818;SDS011;9537;45.594;9.294;2022-12-29T00:29:17;60.87;;;32.43;;
18818;SDS011;9537;45.594;9.294;2022-12-29T00:30:36;59.60;;;32.43;;
18818;SDS011;9537;45.594;9.294;2022-12-29T00:31:56;62.43;;;33.67;;
18818;SDS011;9537;45.594;9.294;2022-12-29T00:33:16;58.60;;;33.40;;
18818;SDS011;9537;45.594;9.294;2022-12-29T00:34:36;57.03;;;31.23;;
18818;SDS011;9537;45.594;9.294;2022-12-29T00:35:56;59.80;;;33.47;;
18818;SDS011;9537;45.594;9.294;2022-12-29T00:37:02;61.70;;;34.60;;
18818;SDS011;9537;45.594;9.294;2022-12-29T00:38:05;59.17;;;33.83;;
18818;SDS011;9537;45.594;9.294;2022-12-29T00:39:26;63.07;;;32.67;;
18818;SDS011;9537;45.594;9.294;2022-12-29T00:40:46;64.03;;;33.03;;
18818;SDS011;9537;45.594;9.294;2022-12-29T00:42:06;60.37;;;32.17;;
18818;SDS011;9537;45.594;9.294;2022-12-29T00:43:32;61.20;;;31.73;;
18818;SDS011;9537;45.594;9.294;2022-12-29T00:44:52;60.10;;;32.40;;
18818;SDS011;9537;45.594;9.294;2022-12-29T00:45:54;64.13;;;35.13;;
18818;SDS011;9537;45.594;9.294;2022-12-29T00:46:55;58.23;;;33.30;;
18818;SDS011;9537;45.594;9.294;2022-12-29T00:47:57;62.43;;;33.53;;
18818;SDS011;9537;45.594;9.294;2022-12-29T00:48:58;61.90;;;33.97;;
18818;SDS011;9537;45.594;9.294;2022-12-29T00:50:17;64.33;;;32.87;;
18818;SDS011;9537;45.594;9.294;2022-12-29T00:51:20;58.93;;;33.37;;
18818;SDS011;9537;45.594;9.294;2022-12-29T00:52:24;62.10;;;33.17;;
18818;SDS011;9537;45.594;9.294;2022-12-29T00:53:27;58.37;;;33.87;;
18818;SDS011;9537;45.594;9.294;2022-12-29T00:54:30;60.10;;;34.23;;
18818;SDS011;9537;45.594;9.294;2022-12-29T00:55:36;61.97;;;34.70;;
18818;SDS011;9537;45.594;9.294;2022-12-29T00:56:37;66.17;;;35.73;;
18818;SDS011;9537;45.594;9.294;2022-12-29T00:57:39;62.93;;;34.63;;
18818;SDS011;9537;45.594;9.294;2022-12-29T00:58:40;60.40;;;34.40;;
18818;SDS011;9537;45.594;9.294;2022-12-29T00:59:42;62.73;;;32.43;;
18818;SDS011;9537;45.594;9.294;2022-12-29T01:00:45;55.20;;;32.60;;
18818;SDS011;9537;45.594;9.294;2022-12-29T01:01:47;57.20;;;33.53;;
18818;SDS011;9537;45.594;9.294;2022-12-29T01:02:49;63.03;;;33.93;;
18818;SDS011;9537;45.594;9.294;2022-12-29T01:03:50;66.07;;;34.50;;
18818;SDS011;9537;45.594;9.294;2022-12-29T01:04:52;62.73;;;34.13;;
18818;SDS011;9537;45.594;9.294;2022-12-29T01:05:53;58.17;;;34.30;;
18818;SDS011;9537;45.594;9.294;2022-12-29T01:06:55;64.63;;;35.43;;
18818;SDS011;9537;45.594;9.294;2022-12-29T01:07:56;62.77;;;33.93;;
18818;SDS011;9537;45.594;9.294;2022-12-29T01:09:00;61.27;;;33.10;;
18818;SDS011;9537;45.594;9.294;2022-12-29T01:10:19;56.43;;;32.13;;
18818;SDS011;9537;45.594;9.294;2022-12-29T01:11:20;55.23;;;31.00;;
18818;SDS011;9537;45.594;9.294;2022-12-29T01:12:21;53.43;;;30.83;;
18818;SDS011;9537;45.594;9.294;2022-12-29T01:13:38;57.30;;;30.27;;
18818;SDS011;9537;45.594;9.294;2022-12-29T01:14:42;53.57;;;29.43;;
18818;SDS011;9537;45.594;9.294;2022-12-29T01:15:48;54.27;;;30.20;;
18818;SDS011;9537;45.594;9.294;2022-12-29T01:16:51;56.53;;;31.93;;
18818;SDS011;9537;45.594;9.294;2022-12-29T01:17:52;59.07;;;33.17;;
18818;SDS011;9537;45.594;9.294;2022-12-29T01:18:54;60.63;;;31.77;;
18818;SDS011;9537;45.594;9.294;2022-12-29T01:19:55;54.17;;;30.67;;
18818;SDS011;9537;45.594;9.294;2022-12-29T01:21:00;57.80;;;30.60;;
18818;SDS011;9537;45.594;9.294;2022-12-29T01:22:02;54.97;;;30.93;;
18818;SDS011;9537;45.594;9.294;2022-12-29T01:23:04;55.00;;;30.93;;
18818;SDS011;9537;45.594;9.294;2022-12-29T01:24:07;56.47;;;32.00;;
18818;SDS011;9537;45.594;9.294;2022-12-29T01:25:09;58.50;;;32.13;;
18818;SDS011;9537;45.594;9.294;2022-12-29T01:26:11;62.83;;;33.80;;
18818;SDS011;9537;45.594;9.294;2022-12-29T01:27:14;58.83;;;34.03;;
18818;SDS011;9537;45.594;9.294;2022-12-29T01:28:15;56.27;;;32.23;;
18818;SDS011;9537;45.594;9.294;2022-12-29T01:29:17;58.03;;;33.40;;
18818;SDS011;9537;45.594;9.294;2022-12-29T01:30:20;57.13;;;32.43;;
18818;SDS011;9537;45.594;9.294;2022-12-29T01:31:21;58.87;;;32.27;;
18818;SDS011;9537;45.594;9.294;2022-12-29T01:32:23;58.63;;;33.47;;
18818;SDS011;9537;45.594;9.294;2022-12-29T01:33:24;58.83;;;31.90;;
18818;SDS011;9537;45.594;9.294;2022-12-29T01:34:26;49.40;;;29.17;;
18818;SDS011;9537;45.594;9.294;2022-12-29T01:35:27;55.57;;;30.57;;
18818;SDS011;9537;45.594;9.294;2022-12-29T01:36:29;58.83;;;32.27;;
18818;SDS011;9537;45.594;9.294;2022-12-29T01:37:30;55.50;;;30.33;;
18818;SDS011;9537;45.594;9.294;2022-12-29T01:38:32;57.50;;;31.57;;
18818;SDS011;9537;45.594;9.294;2022-12-29T01:39:36;57.23;;;31.87;;
18818;SDS011;9537;45.594;9.294;2022-12-29T01:40:44;52.37;;;31.63;;
18818;SDS011;9537;45.594;9.294;2022-12-29T01:41:45;57.17;;;32.93;;
18818;SDS011;9537;45.594;9.294;2022-12-29T01:42:47;60.73;;;31.60;;
18818;SDS011;9537;45.594;9.294;2022-12-29T01:43:49;60.70;;;33.97;;
18818;SDS011;9537;45.594;9.294;2022-12-29T01:44:54;55.23;;;31.90;;
18818;SDS011;9537;45.594;9.294;2022-12-29T01:45:56;59.70;;;32.47;;
18818;SDS011;9537;45.594;9.294;2022-12-29T01:46:58;58.70;;;33.83;;
18818;SDS011;9537;45.594;9.294;2022-12-29T01:48:00;53.53;;;31.17;;
18818;SDS011;9537;45.594;9.294;2022-12-29T01:49:08;58.83;;;32.20;;
18818;SDS011;9537;45.594;9.294;2022-12-29T01:50:13;56.87;;;32.53;;
18818;SDS011;9537;45.594;9.294;2022-12-29T01:51:19;55.23;;;30.87;;
18818;SDS011;9537;45.594;9.294;2022-12-29T01:52:22;58.20;;;33.53;;
18818;SDS011;9537;45.594;9.294;2022-12-29T01:53:29;61.13;;;34.57;;
18818;SDS011;9537;45.594;9.294;2022-12-29T01:54:36;62.90;;;33.63;;
18818;SDS011;9537;45.594;9.294;2022-12-29T01:55:42;64.03;;;34.97;;
18818;SDS011;9537;45.594;9.294;2022-12-29T01:56:48;60.27;;;32.60;;
18818;SDS011;9537;45.594;9.294;2022-12-29T01:57:51;59.50;;;34.17;;
18818;SDS011;9537;45.594;9.294;2022-12-29T01:58:59;61.23;;;34.07;;
18818;SDS011;9537;45.594;9.294;2022-12-29T02:00:06;61.07;;;33.97;;
18818;SDS011;9537;45.594;9.294;2022-12-29T02:01:10;59.13;;;33.47;;
18818;SDS011;9537;45.594;9.294;2022-12-29T02:02:12;57.67;;;34.30;;
18818;SDS011;9537;45.594;9.294;2022-12-29T02:03:15;63.63;;;35.43;;
18818;SDS011;9537;45.594;9.294;2022-12-29T02:04:20;66.43;;;36.83;;
18818;SDS011;9537;45.594;9.294;2022-12-29T02:05:26;61.83;;;35.50;;
18818;SDS011;9537;45.594;9.294;2022-12-29T02:06:35;62.37;;;34.17;;
18818;SDS011;9537;45.594;9.294;2022-12-29T02:07:42;61.73;;;35.57;;
18818;SDS011;9537;45.594;9.294;2022-12-29T02:08:45;60.23;;;34.57;;
18818;SDS011;9537;45.594;9.294;2022-12-29T02:09:50;60.33;;;35.63;;
18818;SDS011;9537;45.594;9.294;2022-12-29T02:10:53;68.47;;;37.10;;
18818;SDS011;9537;45.594;9.294;2022-12-29T02:11:56;65.17;;;36.40;;
18818;SDS011;9537;45.594;9.294;2022-12-29T02:12:58;67.17;;;36.93;;
18818;SDS011;9537;45.594;9.294;2022-12-29T02:14:00;66.43;;;36.13;;
18818;SDS011;9537;45.594;9.294;2022-12-29T02:15:02;66.47;;;37.47;;
18818;SDS011;9537;45.594;9.294;2022-12-29T02:16:09;68.67;;;37.10;;
18818;SDS011;9537;45.594;9.294;2022-12-29T02:17:23;65.73;;;35.57;;
18818;SDS011;9537;45.594;9.294;2022-12-29T02:18:37;62.57;;;34.27;;
18818;SDS011;9537;45.594;9.294;2022-12-29T02:20:01;66.47;;;34.93;;
18818;SDS011;9537;45.594;9.294;2022-12-29T02:21:41;56.40;;;30.53;;
18818;SDS011;9537;45.594;9.294;2022-12-29T02:23:01;57.90;;;30.37;;
18818;SDS011;9537;45.594;9.294;2022-12-29T02:26:38;58.00;;;29.00;;
18818;SDS011;9537;45.594;9.294;2022-12-29T02:27:57;53.27;;;28.23;;
18818;SDS011;9537;45.594;9.294;2022-12-29T02:29:27;57.07;;;30.23;;
18818;SDS011;9537;45.594;9.294;2022-12-29T02:30:54;60.43;;;29.53;;
18818;SDS011;9537;45.594;9.294;2022-12-29T02:32:04;58.33;;;30.07;;
18818;SDS011;9537;45.594;9.294;2022-12-29T02:33:12;64.20;;;30.47;;
18818;SDS011;9537;45.594;9.294;2022-12-29T02:34:22;56.53;;;30.77;;
18818;SDS011;9537;45.594;9.294;2022-12-29T02:35:34;59.20;;;30.03;;
18818;SDS011;9537;45.594;9.294;2022-12-29T02:36:42;57.53;;;30.87;;
18818;SDS011;9537;45.594;9.294;2022-12-29T02:37:50;58.90;;;32.13;;
18818;SDS011;9537;45.594;9.294;2022-12-29T02:39:01;59.23;;;32.43;;
18818;SDS011;9537;45.594;9.294;2022-12-29T02:40:13;56.73;;;31.40;;
18818;SDS011;9537;45.594;9.294;2022-12-29T02:41:23;57.37;;;33.30;;
18818;SDS011;9537;45.594;9.294;2022-12-29T02:42:33;56.23;;;32.33;;
18818;SDS011;9537;45.594;9.294;2022-12-29T02:43:39;58.20;;;33.63;;
18818;SDS011;9537;45.594;9.294;2022-12-29T02:44:52;62.40;;;32.63;;
18818;SDS011;9537;45.594;9.294;2022-12-29T02:46:03;61.87;;;34.97;;
18818;SDS011;9537;45.594;9.294;2022-12-29T02:47:14;64.00;;;33.57;;
18818;SDS011;9537;45.594;9.294;2022-12-29T02:48:22;64.90;;;33.53;;
18818;SDS011;9537;45.594;9.294;2022-12-29T02:49:30;57.97;;;33.57;;
18818;SDS011;9537;45.594;9.294;2022-12-29T02:50:37;55.70;;;32.87;;
18818;SDS011;9537;45.594;9.294;2022-12-29T02:51:44;63.40;;;33.37;;
18818;SDS011;9537;45.594;9.294;2022-12-29T02:52:51;62.47;;;32.90;;
18818;SDS011;9537;45.594;9.294;2022-12-29T02:53:59;65.07;;;36.70;;
18818;SDS011;9537;45.594;9.294;2022-12-29T02:55:18;63.57;;;34.50;;
18818;SDS011;9537;45.594;9.294;2022-12-29T02:56:19;68.13;;;35.33;;
18818;SDS011;9537;45.594;9.294;2022-12-29T02:57:30;61.07;;;34.87;;
18818;SDS011;9537;45.594;9.294;2022-12-29T02:58:33;62.20;;;34.47;;
18818;SDS011;9537;45.594;9.294;2022-12-29T02:59:35;67.93;;;35.37;;
18818;SDS011;9537;45.594;9.294;2022-12-29T03:00:38;68.60;;;38.20;;
18818;SDS011;9537;45.594;9.294;2022-12-29T03:02:01;63.60;;;34.77;;
18818;SDS011;9537;45.594;9.294;2022-12-29T03:03:28;60.13;;;31.57;;
18818;SDS011;9537;45.594;9.294;2022-12-29T03:04:45;56.83;;;30.67;;
18818;SDS011;9537;45.594;9.294;2022-12-29T03:06:09;54.67;;;30.90;;
18818;SDS011;9537;45.594;9.294;2022-12-29T03:07:22;55.77;;;31.53;;
18818;SDS011;9537;45.594;9.294;2022-12-29T03:08:32;59.00;;;31.43;;
18818;SDS011;9537;45.594;9.294;2022-12-29T03:09:42;58.80;;;32.40;;
18818;SDS011;9537;45.594;9.294;2022-12-29T03:10:51;54.23;;;31.67;;
18818;SDS011;9537;45.594;9.294;2022-12-29T03:12:02;61.40;;;32.23;;
18818;SDS011;9537;45.594;9.294;2022-12-29T03:13:12;53.00;;;31.17;;
18818;SDS011;9537;45.594;9.294;2022-12-29T03:14:52;53.53;;;30.30;;
18818;SDS011;9537;45.594;9.294;2022-12-29T03:16:19;49.67;;;27.33;;
18818;SDS011;9537;45.594;9.294;2022-12-29T03:17:26;58.27;;;30.53;;
18818;SDS011;9537;45.594;9.294;2022-12-29T03:18:37;53.27;;;29.57;;
18818;SDS011;9537;45.594;9.294;2022-12-29T03:19:44;52.07;;;28.83;;
18818;SDS011;9537;45.594;9.294;2022-12-29T03:20:52;49.13;;;29.30;;
18818;SDS011;9537;45.594;9.294;2022-12-29T03:21:56;52.07;;;29.50;;
18818;SDS011;9537;45.594;9.294;2022-12-29T03:23:14;50.57;;;28.50;;
18818;SDS011;9537;45.594;9.294;2022-12-29T03:24:20;53.43;;;31.07;;
18818;SDS011;9537;45.594;9.294;2022-12-29T03:25:26;62.10;;;34.07;;
18818;SDS011;9537;45.594;9.294;2022-12-29T03:26:32;60.63;;;34.07;;
18818;SDS011;9537;45.594;9.294;2022-12-29T03:27:33;62.27;;;35.63;;
18818;SDS011;9537;45.594;9.294;2022-12-29T03:28:41;63.07;;;34.70;;
18818;SDS011;9537;45.594;9.294;2022-12-29T03:29:47;59.77;;;32.57;;
18818;SDS011;9537;45.594;9.294;2022-12-29T03:30:54;55.57;;;33.17;;
18818;SDS011;9537;45.594;9.294;2022-12-29T03:31:58;60.30;;;32.93;;
18818;SDS011;9537;45.594;9.294;2022-12-29T03:33:04;58.60;;;32.43;;
18818;SDS011;9537;45.594;9.294;2022-12-29T03:34:10;54.50;;;31.20;;
18818;SDS011;9537;45.594;9.294;2022-12-29T03:35:15;55.13;;;31.60;;
18818;SDS011;9537;45.594;9.294;2022-12-29T03:36:23;56.20;;;31.90;;
18818;SDS011;9537;45.594;9.294;2022-12-29T03:37:30;49.50;;;29.57;;
18818;SDS011;9537;45.594;9.294;2022-12-29T03:38:35;56.13;;;29.90;;
18818;SDS011;9537;45.594;9.294;2022-12-29T03:39:44;52.80;;;31.30;;
18818;SDS011;9537;45.594;9.294;2022-12-29T03:40:46;60.13;;;33.03;;
18818;SDS011;9537;45.594;9.294;2022-12-29T03:41:52;57.93;;;34.27;;
18818;SDS011;9537;45.594;9.294;2022-12-29T03:42:58;65.50;;;35.23;;
18818;SDS011;9537;45.594;9.294;2022-12-29T03:44:00;66.20;;;37.67;;
18818;SDS011;9537;45.594;9.294;2022-12-29T03:45:01;65.47;;;35.37;;
18818;SDS011;9537;45.594;9.294;2022-12-29T03:46:07;67.37;;;37.20;;
18818;SDS011;9537;45.594;9.294;2022-12-29T03:47:09;61.20;;;35.37;;
18818;SDS011;9537;45.594;9.294;2022-12-29T03:48:14;61.30;;;36.47;;
18818;SDS011;9537;45.594;9.294;2022-12-29T03:49:15;63.27;;;36.17;;
18818;SDS011;9537;45.594;9.294;2022-12-29T03:50:17;60.77;;;36.27;;
18818;SDS011;9537;45.594;9.294;2022-12-29T03:51:17;66.17;;;36.23;;
18818;SDS011;9537;45.594;9.294;2022-12-29T03:52:20;63.20;;;35.37;;
18818;SDS011;9537;45.594;9.294;2022-12-29T03:53:21;63.47;;;34.43;;
18818;SDS011;9537;45.594;9.294;2022-12-29T03:54:23;60.77;;;34.13;;
18818;SDS011;9537;45.594;9.294;2022-12-29T03:55:25;56.83;;;32.87;;
18818;SDS011;9537;45.594;9.294;2022-12-29T03:56:26;58.13;;;33.67;;
18818;SDS011;9537;45.594;9.294;2022-12-29T03:57:28;60.90;;;33.87;;
18818;SDS011;9537;45.594;9.294;2022-12-29T03:58:29;56.27;;;32.93;;
18818;SDS011;9537;45.594;9.294;2022-12-29T03:59:31;55.90;;;33.37;;
18818;SDS011;9537;45.594;9.294;2022-12-29T04:00:32;55.23;;;32.87;;
18818;SDS011;9537;45.594;9.294;2022-12-29T04:01:34;60.43;;;35.40;;
18818;SDS011;9537;45.594;9.294;2022-12-29T04:02:35;59.23;;;34.70;;
18818;SDS011;9537;45.594;9.294;2022-12-29T04:03:38;59.83;;;34.17;;
18818;SDS011;9537;45.594;9.294;2022-12-29T04:04:42;60.80;;;36.37;;
18818;SDS011;9537;45.594;9.294;2022-12-29T04:05:45;61.13;;;35.27;;
18818;SDS011;9537;45.594;9.294;2022-12-29T04:06:46;66.27;;;37.70;;
18818;SDS011;9537;45.594;9.294;2022-12-29T04:07:48;64.37;;;37.80;;
18818;SDS011;9537;45.594;9.294;2022-12-29T04:08:49;65.30;;;37.73;;
18818;SDS011;9537;45.594;9.294;2022-12-29T04:09:51;63.20;;;38.67;;
18818;SDS011;9537;45.594;9.294;2022-12-29T04:10:52;63.53;;;38.67;;
18818;SDS011;9537;45.594;9.294;2022-12-29T04:11:55;65.57;;;37.40;;
18818;SDS011;9537;45.594;9.294;2022-12-29T04:12:55;69.63;;;39.47;;
18818;SDS011;9537;45.594;9.294;2022-12-29T04:13:58;64.57;;;37.37;;
18818;SDS011;9537;45.594;9.294;2022-12-29T04:14:59;63.80;;;36.83;;
18818;SDS011;9537;45.594;9.294;2022-12-29T04:16:01;60.77;;;35.57;;
18818;SDS011;9537;45.594;9.294;2022-12-29T04:17:02;55.60;;;34.27;;
18818;SDS011;9537;45.594;9.294;2022-12-29T04:18:04;65.03;;;35.80;;
18818;SDS011;9537;45.594;9.294;2022-12-29T04:19:06;56.93;;;34.90;;
18818;SDS011;9537;45.594;9.294;2022-12-29T04:20:09;59.80;;;34.03;;
18818;SDS011;9537;45.594;9.294;2022-12-29T04:21:28;51.63;;;32.47;;
18818;SDS011;9537;45.594;9.294;2022-12-29T04:22:30;56.13;;;33.27;;
18818;SDS011;9537;45.594;9.294;2022-12-29T04:23:32;57.13;;;33.60;;
18818;SDS011;9537;45.594;9.294;2022-12-29T04:24:36;55.67;;;34.53;;
18818;SDS011;9537;45.594;9.294;2022-12-29T04:25:36;58.13;;;34.13;;
18818;SDS011;9537;45.594;9.294;2022-12-29T04:26:38;59.07;;;34.43;;
18818;SDS011;9537;45.594;9.294;2022-12-29T04:27:41;57.63;;;34.67;;
18818;SDS011;9537;45.594;9.294;2022-12-29T04:28:42;61.03;;;35.47;;
18818;SDS011;9537;45.594;9.294;2022-12-29T04:29:44;58.67;;;34.83;;
18818;SDS011;9537;45.594;9.294;2022-12-29T04:30:45;60.83;;;36.57;;
18818;SDS011;9537;45.594;9.294;2022-12-29T04:31:47;63.17;;;35.33;;
18818;SDS011;9537;45.594;9.294;2022-12-29T04:32:48;54.60;;;33.40;;
18818;SDS011;9537;45.594;9.294;2022-12-29T04:33:51;56.13;;;33.70;;
18818;SDS011;9537;45.594;9.294;2022-12-29T04:34:53;62.60;;;34.07;;
18818;SDS011;9537;45.594;9.294;2022-12-29T04:35:55;57.30;;;32.97;;
18818;SDS011;9537;45.594;9.294;2022-12-29T04:36:56;61.20;;;35.23;;
18818;SDS011;9537;45.594;9.294;2022-12-29T04:37:58;57.70;;;34.27;;
18818;SDS011;9537;45.594;9.294;2022-12-29T04:39:00;54.43;;;33.00;;
18818;SDS011;9537;45.594;9.294;2022-12-29T04:40:01;62.37;;;34.40;;
18818;SDS011;9537;45.594;9.294;2022-12-29T04:41:04;63.97;;;35.13;;
18818;SDS011;9537;45.594;9.294;2022-12-29T04:42:05;58.30;;;33.20;;
18818;SDS011;9537;45.594;9.294;2022-12-29T04:43:07;61.67;;;35.23;;
18818;SDS011;9537;45.594;9.294;2022-12-29T04:44:08;61.00;;;35.03;;
18818;SDS011;9537;45.594;9.294;2022-12-29T04:45:10;59.40;;;34.13;;
18818;SDS011;9537;45.594;9.294;2022-12-29T04:46:11;60.57;;;35.27;;
18818;SDS011;9537;45.594;9.294;2022-12-29T04:47:13;57.43;;;33.87;;
18818;SDS011;9537;45.594;9.294;2022-12-29T04:48:14;59.67;;;35.77;;
18818;SDS011;9537;45.594;9.294;2022-12-29T04:49:17;59.23;;;35.53;;
18818;SDS011;9537;45.594;9.294;2022-12-29T04:50:19;59.73;;;36.53;;
18818;SDS011;9537;45.594;9.294;2022-12-29T04:51:21;57.93;;;33.90;;
18818;SDS011;9537;45.594;9.294;2022-12-29T04:52:22;60.23;;;35.40;;
18818;SDS011;9537;45.594;9.294;2022-12-29T04:53:24;58.33;;;34.43;;
18818;SDS011;9537;45.594;9.294;2022-12-29T04:54:25;53.53;;;32.47;;
18818;SDS011;9537;45.594;9.294;2022-12-29T04:55:28;53.60;;;32.43;;
18818;SDS011;9537;45.594;9.294;2022-12-29T04:56:29;54.27;;;31.37;;
18818;SDS011;9537;45.594;9.294;2022-12-29T04:57:31;62.53;;;33.93;;
18818;SDS011;9537;45.594;9.294;2022-12-29T04:58:32;57.47;;;33.97;;
18818;SDS011;9537;45.594;9.294;2022-12-29T04:59:34;57.30;;;33.97;;
18818;SDS011;9537;45.594;9.294;2022-12-29T05:00:35;59.77;;;36.00;;
18818;SDS011;9537;45.594;9.294;2022-12-29T05:01:37;63.00;;;35.00;;
18818;SDS011;9537;45.594;9.294;2022-12-29T05:02:39;62.63;;;35.30;;
18818;SDS011;9537;45.594;9.294;2022-12-29T05:03:42;58.63;;;35.23;;
18818;SDS011;9537;45.594;9.294;2022-12-29T05:04:43;57.63;;;34.23;;
18818;SDS011;9537;45.594;9.294;2022-12-29T05:05:46;57.13;;;33.77;;
18818;SDS011;9537;45.594;9.294;2022-12-29T05:06:47;55.63;;;34.27;;
18818;SDS011;9537;45.594;9.294;2022-12-29T05:07:50;60.37;;;35.17;;
18818;SDS011;9537;45.594;9.294;2022-12-29T05:08:51;62.47;;;35.50;;
18818;SDS011;9537;45.594;9.294;2022-12-29T05:09:53;60.93;;;36.33;;
18818;SDS011;9537;45.594;9.294;2022-12-29T05:10:54;61.77;;;35.53;;
18818;SDS011;9537;45.594;9.294;2022-12-29T05:11:56;60.77;;;36.13;;
18818;SDS011;9537;45.594;9.294;2022-12-29T05:12:57;65.30;;;39.10;;
18818;SDS011;9537;45.594;9.294;2022-12-29T05:14:00;61.97;;;36.70;;
18818;SDS011;9537;45.594;9.294;2022-12-29T05:15:01;69.17;;;36.47;;
18818;SDS011;9537;45.594;9.294;2022-12-29T05:16:04;69.37;;;39.53;;
18818;SDS011;9537;45.594;9.294;2022-12-29T05:17:05;63.67;;;38.50;;
18818;SDS011;9537;45.594;9.294;2022-12-29T05:18:07;62.00;;;36.67;;
18818;SDS011;9537;45.594;9.294;2022-12-29T05:19:08;63.33;;;36.40;;
18818;SDS011;9537;45.594;9.294;2022-12-29T05:20:10;62.73;;;36.30;;
18818;SDS011;9537;45.594;9.294;2022-12-29T05:21:12;69.73;;;37.27;;
18818;SDS011;9537;45.594;9.294;2022-12-29T05:22:14;62.70;;;38.63;;
18818;SDS011;9537;45.594;9.294;2022-12-29T05:23:15;63.93;;;36.47;;
18818;SDS011;9537;45.594;9.294;2022-12-29T05:24:17;65.80;;;37.97;;
18818;SDS011;9537;45.594;9.294;2022-12-29T05:25:19;63.17;;;36.00;;
18818;SDS011;9537;45.594;9.294;2022-12-29T05:26:21;62.40;;;35.63;;
18818;SDS011;9537;45.594;9.294;2022-12-29T05:27:22;60.53;;;35.27;;
18818;SDS011;9537;45.594;9.294;2022-12-29T05:28:24;57.47;;;33.97;;
18818;SDS011;9537;45.594;9.294;2022-12-29T05:29:25;58.33;;;33.47;;
18818;SDS011;9537;45.594;9.294;2022-12-29T05:30:27;55.47;;;31.73;;
18818;SDS011;9537;45.594;9.294;2022-12-29T05:31:28;59.67;;;34.20;;
18818;SDS011;9537;45.594;9.294;2022-12-29T05:32:30;58.73;;;35.43;;
18818;SDS011;9537;45.594;9.294;2022-12-29T05:33:31;62.30;;;34.20;;
18818;SDS011;9537;45.594;9.294;2022-12-29T05:34:33;58.57;;;33.63;;
18818;SDS011;9537;45.594;9.294;2022-12-29T05:35:34;57.87;;;32.70;;
18818;SDS011;9537;45.594;9.294;2022-12-29T05:36:38;58.33;;;34.03;;
18818;SDS011;9537;45.594;9.294;2022-12-29T05:37:39;64.27;;;36.27;;
18818;SDS011;9537;45.594;9.294;2022-12-29T05:38:41;58.30;;;34.50;;
18818;SDS011;9537;45.594;9.294;2022-12-29T05:39:42;58.83;;;35.80;;
18818;SDS011;9537;45.594;9.294;2022-12-29T05:40:45;62.20;;;36.87;;
18818;SDS011;9537;45.594;9.294;2022-12-29T05:41:46;61.20;;;36.23;;
18818;SDS011;9537;45.594;9.294;2022-12-29T05:42:48;60.17;;;36.37;;
18818;SDS011;9537;45.594;9.294;2022-12-29T05:43:49;63.00;;;36.40;;
18818;SDS011;9537;45.594;9.294;2022-12-29T05:44:51;66.23;;;38.17;;
18818;SDS011;9537;45.594;9.294;2022-12-29T05:45:54;67.97;;;38.90;;
18818;SDS011;9537;45.594;9.294;2022-12-29T05:46:57;65.83;;;38.40;;
18818;SDS011;9537;45.594;9.294;2022-12-29T05:47:57;59.63;;;36.27;;
18818;SDS011;9537;45.594;9.294;2022-12-29T05:49:00;63.40;;;36.63;;
18818;SDS011;9537;45.594;9.294;2022-12-29T05:50:01;61.20;;;35.40;;
18818;SDS011;9537;45.594;9.294;2022-12-29T05:51:03;61.27;;;36.03;;
18818;SDS011;9537;45.594;9.294;2022-12-29T05:52:06;55.90;;;34.13;;
18818;SDS011;9537;45.594;9.294;2022-12-29T05:53:08;61.77;;;36.07;;
18818;SDS011;9537;45.594;9.294;2022-12-29T05:54:09;59.23;;;34.90;;
18818;SDS011;9537;45.594;9.294;2022-12-29T05:55:11;62.70;;;35.57;;
18818;SDS011;9537;45.594;9.294;2022-12-29T05:56:12;64.57;;;38.27;;
18818;SDS011;9537;45.594;9.294;2022-12-29T05:57:14;69.33;;;38.23;;
18818;SDS011;9537;45.594;9.294;2022-12-29T05:58:15;60.87;;;35.50;;
18818;SDS011;9537;45.594;9.294;2022-12-29T05:59:17;65.80;;;36.23;;
18818;SDS011;9537;45.594;9.294;2022-12-29T06:00:18;61.00;;;36.23;;
18818;SDS011;9537;45.594;9.294;2022-12-29T06:01:20;64.60;;;35.67;;
18818;SDS011;9537;45.594;9.294;2022-12-29T06:02:22;62.97;;;37.07;;
18818;SDS011;9537;45.594;9.294;2022-12-29T06:03:24;66.17;;;37.87;;
18818;SDS011;9537;45.594;9.294;2022-12-29T06:04:25;53.93;;;33.20;;
18818;SDS011;9537;45.594;9.294;2022-12-29T06:05:27;59.00;;;34.70;;
18818;SDS011;9537;45.594;9.294;2022-12-29T06:06:28;64.33;;;35.43;;
18818;SDS011;9537;45.594;9.294;2022-12-29T06:07:31;61.23;;;35.60;;
18818;SDS011;9537;45.594;9.294;2022-12-29T06:08:32;56.63;;;34.30;;
18818;SDS011;9537;45.594;9.294;2022-12-29T06:09:35;55.90;;;33.23;;
18818;SDS011;9537;45.594;9.294;2022-12-29T06:10:36;58.50;;;33.10;;
18818;SDS011;9537;45.594;9.294;2022-12-29T06:11:38;55.93;;;32.50;;
18818;SDS011;9537;45.594;9.294;2022-12-29T06:12:38;53.17;;;30.93;;
18818;SDS011;9537;45.594;9.294;2022-12-29T06:13:41;53.03;;;30.63;;
18818;SDS011;9537;45.594;9.294;2022-12-29T06:14:42;51.07;;;30.10;;
18818;SDS011;9537;45.594;9.294;2022-12-29T06:15:44;52.70;;;31.07;;
18818;SDS011;9537;45.594;9.294;2022-12-29T06:16:48;58.63;;;33.80;;
18818;SDS011;9537;45.594;9.294;2022-12-29T06:17:50;55.53;;;33.43;;
18818;SDS011;9537;45.594;9.294;2022-12-29T06:18:51;57.27;;;33.77;;
18818;SDS011;9537;45.594;9.294;2022-12-29T06:19:53;52.43;;;32.00;;
18818;SDS011;9537;45.594;9.294;2022-12-29T06:20:54;50.70;;;31.10;;
18818;SDS011;9537;45.594;9.294;2022-12-29T06:21:56;60.40;;;34.97;;
18818;SDS011;9537;45.594;9.294;2022-12-29T06:23:01;56.40;;;35.20;;
18818;SDS011;9537;45.594;9.294;2022-12-29T06:24:04;60.73;;;34.87;;
18818;SDS011;9537;45.594;9.294;2022-12-29T06:25:06;60.10;;;35.37;;
18818;SDS011;9537;45.594;9.294;2022-12-29T06:26:08;57.13;;;35.20;;
18818;SDS011;9537;45.594;9.294;2022-12-29T06:27:09;58.87;;;35.27;;
18818;SDS011;9537;45.594;9.294;2022-12-29T06:28:11;56.13;;;33.33;;
18818;SDS011;9537;45.594;9.294;2022-12-29T06:29:12;58.53;;;33.97;;